Betim, Brazil
Current Conditions -  °F | °C
As of 7:15 PM on Thursday 20 Nov 2014 (Local Time) from SBPR Reporting Station
Clear Clear  
Wind Chill: 77°   Ceiling: Unl
Heat Index: 79°   Visibility: 6mi
Dew Point: 57°   Wind: 8mph
Humidity: 50%   Direction: 80°E
Pressure: 30"   Gusts: NA
Location:  19.97°S, 44.19°W
Report Text: SBPR 202115Z 08007KT CAVOK 25/14 Q1016
Loading
Personal Weather Stations






























Interactive Weather Map New forecast layout! Learn more

10-Day Weather Forecast

Advertisements
Track Severe Weather on mobile